sensor_id;sensor_type;location;lat;lon;timestamp;pressure;altitude;pressure_sealevel;temperature;humidity
19596;BME280;9945;46.010;8.946;2023-11-18T00:02:23;97713.34;;;13.02;39.19
19596;BME280;9945;46.010;8.946;2023-11-18T00:04:50;97714.72;;;13.24;37.50
19596;BME280;9945;46.010;8.946;2023-11-18T00:07:17;97715.81;;;13.04;37.52
19596;BME280;9945;46.010;8.946;2023-11-18T00:09:43;97712.63;;;13.10;39.49
19596;BME280;9945;46.010;8.946;2023-11-18T00:12:12;97712.75;;;13.08;39.74
19596;BME280;9945;46.010;8.946;2023-11-18T00:14:39;97707.72;;;12.79;38.56
19596;BME280;9945;46.010;8.946;2023-11-18T00:17:08;97710.06;;;12.82;38.22
19596;BME280;9945;46.010;8.946;2023-11-18T00:19:35;97713.13;;;12.78;39.16
19596;BME280;9945;46.010;8.946;2023-11-18T00:22:02;97715.72;;;12.60;37.91
19596;BME280;9945;46.010;8.946;2023-11-18T00:24:29;97706.41;;;12.48;37.96
19596;BME280;9945;46.010;8.946;2023-11-18T00:27:00;97704.41;;;12.77;37.83
19596;BME280;9945;46.010;8.946;2023-11-18T00:29:32;97691.50;;;12.84;37.97
19596;BME280;9945;46.010;8.946;2023-11-18T00:31:59;97696.09;;;13.00;36.26
19596;BME280;9945;46.010;8.946;2023-11-18T00:34:26;97690.91;;;12.90;37.06
19596;BME280;9945;46.010;8.946;2023-11-18T00:36:54;97695.25;;;12.64;35.73
19596;BME280;9945;46.010;8.946;2023-11-18T00:39:22;97690.69;;;12.83;35.33
19596;BME280;9945;46.010;8.946;2023-11-18T00:41:49;97684.34;;;12.94;35.49
19596;BME280;9945;46.010;8.946;2023-11-18T00:44:16;97687.50;;;12.62;36.44
19596;BME280;9945;46.010;8.946;2023-11-18T00:46:44;97688.03;;;12.66;36.80
19596;BME280;9945;46.010;8.946;2023-11-18T00:49:11;97685.94;;;12.69;35.93
19596;BME280;9945;46.010;8.946;2023-11-18T00:51:38;97692.47;;;12.65;36.54
19596;BME280;9945;46.010;8.946;2023-11-18T00:54:06;97694.63;;;12.52;36.06
19596;BME280;9945;46.010;8.946;2023-11-18T00:56:37;97693.16;;;12.67;35.95
19596;BME280;9945;46.010;8.946;2023-11-18T00:59:04;97685.28;;;12.67;35.40
19596;BME280;9945;46.010;8.946;2023-11-18T01:01:31;97695.53;;;12.78;35.57
19596;BME280;9945;46.010;8.946;2023-11-18T01:04:00;97698.66;;;12.92;35.89
19596;BME280;9945;46.010;8.946;2023-11-18T01:06:26;97705.78;;;12.81;36.64
19596;BME280;9945;46.010;8.946;2023-11-18T01:08:53;97712.00;;;12.80;36.90
19596;BME280;9945;46.010;8.946;2023-11-18T01:11:21;97707.19;;;12.76;35.55
19596;BME280;9945;46.010;8.946;2023-11-18T01:13:48;97709.38;;;12.80;35.02
19596;BME280;9945;46.010;8.946;2023-11-18T01:16:15;97706.53;;;12.92;35.34
19596;BME280;9945;46.010;8.946;2023-11-18T01:18:43;97714.78;;;12.97;34.90
19596;BME280;9945;46.010;8.946;2023-11-18T01:21:12;97713.88;;;13.06;34.66
19596;BME280;9945;46.010;8.946;2023-11-18T01:23:39;97728.59;;;12.99;33.66
19596;BME280;9945;46.010;8.946;2023-11-18T01:26:10;97721.97;;;13.12;34.20
19596;BME280;9945;46.010;8.946;2023-11-18T01:28:38;97730.69;;;13.13;35.34
19596;BME280;9945;46.010;8.946;2023-11-18T01:31:08;97742.75;;;13.15;34.56
19596;BME280;9945;46.010;8.946;2023-11-18T01:33:36;97732.22;;;13.15;36.44
19596;BME280;9945;46.010;8.946;2023-11-18T01:36:06;97730.09;;;13.19;34.85
19596;BME280;9945;46.010;8.946;2023-11-18T01:38:36;97729.59;;;13.15;35.66
19596;BME280;9945;46.010;8.946;2023-11-18T01:41:04;97736.56;;;13.07;35.94
19596;BME280;9945;46.010;8.946;2023-11-18T01:43:31;97723.66;;;13.13;34.43
19596;BME280;9945;46.010;8.946;2023-11-18T01:45:58;97731.16;;;12.91;36.11
19596;BME280;9945;46.010;8.946;2023-11-18T01:48:27;97740.53;;;13.11;36.49
19596;BME280;9945;46.010;8.946;2023-11-18T01:50:56;97736.28;;;13.10;36.15
19596;BME280;9945;46.010;8.946;2023-11-18T01:53:24;97746.09;;;13.08;36.51
19596;BME280;9945;46.010;8.946;2023-11-18T01:55:54;97743.75;;;13.05;36.26
19596;BME280;9945;46.010;8.946;2023-11-18T01:58:21;97747.88;;;13.17;34.51
19596;BME280;9945;46.010;8.946;2023-11-18T02:00:50;97749.72;;;13.07;36.20
19596;BME280;9945;46.010;8.946;2023-11-18T02:03:18;97756.97;;;13.13;35.94
19596;BME280;9945;46.010;8.946;2023-11-18T02:05:45;97747.91;;;13.07;36.18
19596;BME280;9945;46.010;8.946;2023-11-18T02:08:12;97744.16;;;13.10;34.89
19596;BME280;9945;46.010;8.946;2023-11-18T02:10:46;97751.97;;;13.19;34.21
19596;BME280;9945;46.010;8.946;2023-11-18T02:13:22;97750.16;;;13.20;34.10
19596;BME280;9945;46.010;8.946;2023-11-18T02:15:53;97751.16;;;13.19;33.83
19596;BME280;9945;46.010;8.946;2023-11-18T02:18:24;97755.13;;;13.23;34.32
19596;BME280;9945;46.010;8.946;2023-11-18T02:20:53;97756.31;;;13.29;32.99
19596;BME280;9945;46.010;8.946;2023-11-18T02:23:23;97764.69;;;13.24;33.15
19596;BME280;9945;46.010;8.946;2023-11-18T02:25:53;97772.72;;;13.22;35.05
19596;BME280;9945;46.010;8.946;2023-11-18T02:28:21;97773.00;;;13.19;32.90
19596;BME280;9945;46.010;8.946;2023-11-18T02:30:50;97777.16;;;13.22;33.76
19596;BME280;9945;46.010;8.946;2023-11-18T02:33:22;97785.22;;;13.11;34.81
19596;BME280;9945;46.010;8.946;2023-11-18T02:35:59;97787.38;;;13.25;32.75
19596;BME280;9945;46.010;8.946;2023-11-18T02:38:32;97789.25;;;13.15;34.90
19596;BME280;9945;46.010;8.946;2023-11-18T02:41:10;97784.22;;;13.21;33.20
19596;BME280;9945;46.010;8.946;2023-11-18T02:43:39;97779.78;;;13.22;32.74
19596;BME280;9945;46.010;8.946;2023-11-18T02:46:06;97774.88;;;13.27;34.85
19596;BME280;9945;46.010;8.946;2023-11-18T02:48:34;97768.81;;;13.27;32.72
19596;BME280;9945;46.010;8.946;2023-11-18T02:51:01;97765.84;;;13.12;33.17
19596;BME280;9945;46.010;8.946;2023-11-18T02:53:28;97761.88;;;13.08;34.18
19596;BME280;9945;46.010;8.946;2023-11-18T02:55:55;97752.34;;;13.07;32.31
19596;BME280;9945;46.010;8.946;2023-11-18T02:58:29;97744.59;;;13.05;33.74
19596;BME280;9945;46.010;8.946;2023-11-18T03:00:56;97752.47;;;13.05;32.88
19596;BME280;9945;46.010;8.946;2023-11-18T03:03:25;97756.88;;;13.14;32.82
19596;BME280;9945;46.010;8.946;2023-11-18T03:05:52;97749.97;;;13.13;32.02
19596;BME280;9945;46.010;8.946;2023-11-18T03:08:21;97747.88;;;13.17;30.94
19596;BME280;9945;46.010;8.946;2023-11-18T03:10:48;97738.47;;;13.14;31.50
19596;BME280;9945;46.010;8.946;2023-11-18T03:13:17;97731.91;;;13.18;29.84
19596;BME280;9945;46.010;8.946;2023-11-18T03:15:46;97730.94;;;13.19;29.81
19596;BME280;9945;46.010;8.946;2023-11-18T03:18:14;97734.25;;;13.21;29.69
19596;BME280;9945;46.010;8.946;2023-11-18T03:20:42;97728.69;;;13.24;31.39
19596;BME280;9945;46.010;8.946;2023-11-18T03:23:09;97720.94;;;13.05;30.85
19596;BME280;9945;46.010;8.946;2023-11-18T03:25:38;97726.84;;;13.17;31.28
19596;BME280;9945;46.010;8.946;2023-11-18T03:28:05;97725.94;;;13.26;30.76
19596;BME280;9945;46.010;8.946;2023-11-18T03:30:33;97724.56;;;13.22;30.67
19596;BME280;9945;46.010;8.946;2023-11-18T03:33:03;97717.28;;;13.16;29.88
19596;BME280;9945;46.010;8.946;2023-11-18T03:35:30;97720.75;;;13.16;28.88
19596;BME280;9945;46.010;8.946;2023-11-18T03:37:58;97721.28;;;13.10;29.54
19596;BME280;9945;46.010;8.946;2023-11-18T03:40:24;97730.25;;;13.00;30.32
19596;BME280;9945;46.010;8.946;2023-11-18T03:42:54;97731.31;;;12.89;30.75
19596;BME280;9945;46.010;8.946;2023-11-18T03:45:22;97714.41;;;13.09;30.72
19596;BME280;9945;46.010;8.946;2023-11-18T03:47:48;97726.16;;;13.15;30.00
19596;BME280;9945;46.010;8.946;2023-11-18T03:50:18;97722.53;;;12.98;29.81
19596;BME280;9945;46.010;8.946;2023-11-18T03:52:45;97716.50;;;13.06;29.10
19596;BME280;9945;46.010;8.946;2023-11-18T03:55:11;97726.47;;;13.02;30.67
19596;BME280;9945;46.010;8.946;2023-11-18T03:57:37;97716.44;;;12.98;30.28
19596;BME280;9945;46.010;8.946;2023-11-18T04:00:05;97716.50;;;13.06;31.22
19596;BME280;9945;46.010;8.946;2023-11-18T04:02:32;97718.25;;;13.15;29.11
19596;BME280;9945;46.010;8.946;2023-11-18T04:05:01;97721.16;;;13.12;29.51
19596;BME280;9945;46.010;8.946;2023-11-18T04:07:30;97730.56;;;13.32;28.43
19596;BME280;9945;46.010;8.946;2023-11-18T04:09:57;97742.34;;;13.28;29.53
19596;BME280;9945;46.010;8.946;2023-11-18T04:12:25;97734.31;;;13.30;28.55
19596;BME280;9945;46.010;8.946;2023-11-18T04:14:52;97740.88;;;13.25;28.74
19596;BME280;9945;46.010;8.946;2023-11-18T04:17:19;97745.75;;;13.20;29.06
19596;BME280;9945;46.010;8.946;2023-11-18T04:19:46;97743.94;;;13.21;29.91
19596;BME280;9945;46.010;8.946;2023-11-18T04:22:13;97739.66;;;13.20;29.84
19596;BME280;9945;46.010;8.946;2023-11-18T04:24:41;97739.66;;;13.20;30.48
19596;BME280;9945;46.010;8.946;2023-11-18T04:27:10;97736.25;;;13.27;30.02
19596;BME280;9945;46.010;8.946;2023-11-18T04:29:37;97741.09;;;13.32;29.28
19596;BME280;9945;46.010;8.946;2023-11-18T04:32:06;97744.06;;;13.02;28.31
19596;BME280;9945;46.010;8.946;2023-11-18T04:34:35;97742.28;;;13.20;28.95
19596;BME280;9945;46.010;8.946;2023-11-18T04:37:02;97749.66;;;13.34;29.17
19596;BME280;9945;46.010;8.946;2023-11-18T04:39:31;97748.59;;;13.27;29.53
19596;BME280;9945;46.010;8.946;2023-11-18T04:41:59;97745.38;;;13.33;29.23
19596;BME280;9945;46.010;8.946;2023-11-18T04:44:27;97752.78;;;13.38;30.40
19596;BME280;9945;46.010;8.946;2023-11-18T04:46:56;97745.81;;;13.29;30.54
19596;BME280;9945;46.010;8.946;2023-11-18T04:49:23;97754.50;;;13.11;28.90
19596;BME280;9945;46.010;8.946;2023-11-18T04:51:50;97758.91;;;12.93;31.42
19596;BME280;9945;46.010;8.946;2023-11-18T04:54:17;97761.19;;;13.06;30.04
19596;BME280;9945;46.010;8.946;2023-11-18T04:56:44;97761.16;;;13.15;31.27
19596;BME280;9945;46.010;8.946;2023-11-18T04:59:13;97760.81;;;13.01;30.98
19596;BME280;9945;46.010;8.946;2023-11-18T05:01:40;97753.53;;;13.12;29.71
19596;BME280;9945;46.010;8.946;2023-11-18T05:04:06;97742.13;;;13.21;30.08
19596;BME280;9945;46.010;8.946;2023-11-18T05:06:35;97759.63;;;13.13;30.00
19596;BME280;9945;46.010;8.946;2023-11-18T05:09:01;97768.22;;;13.15;29.91
19596;BME280;9945;46.010;8.946;2023-11-18T05:11:33;97773.97;;;13.18;30.97
19596;BME280;9945;46.010;8.946;2023-11-18T05:14:00;97763.63;;;13.17;30.85
19596;BME280;9945;46.010;8.946;2023-11-18T05:16:30;97753.78;;;13.19;31.09
19596;BME280;9945;46.010;8.946;2023-11-18T05:18:57;97754.78;;;13.18;30.57
19596;BME280;9945;46.010;8.946;2023-11-18T05:21:24;97747.09;;;13.24;30.95
19596;BME280;9945;46.010;8.946;2023-11-18T05:23:51;97754.31;;;13.22;29.59
19596;BME280;9945;46.010;8.946;2023-11-18T05:26:18;97751.88;;;13.11;31.05
19596;BME280;9945;46.010;8.946;2023-11-18T05:28:45;97745.06;;;13.18;30.01
19596;BME280;9945;46.010;8.946;2023-11-18T05:31:12;97740.88;;;13.25;30.15
19596;BME280;9945;46.010;8.946;2023-11-18T05:33:40;97744.41;;;13.16;30.19
19596;BME280;9945;46.010;8.946;2023-11-18T05:36:07;97759.03;;;13.19;30.34
19596;BME280;9945;46.010;8.946;2023-11-18T05:38:36;97758.22;;;13.18;30.03
19596;BME280;9945;46.010;8.946;2023-11-18T05:41:03;97756.13;;;13.22;28.94
19596;BME280;9945;46.010;8.946;2023-11-18T05:43:32;97746.34;;;13.32;29.53
19596;BME280;9945;46.010;8.946;2023-11-18T05:46:05;97744.00;;;13.29;28.06
19596;BME280;9945;46.010;8.946;2023-11-18T05:48:47;97742.69;;;13.25;28.16
19596;BME280;9945;46.010;8.946;2023-11-18T05:51:18;97732.97;;;12.90;28.79
19596;BME280;9945;46.010;8.946;2023-11-18T05:53:46;97727.66;;;13.17;27.76
19596;BME280;9945;46.010;8.946;2023-11-18T05:56:13;97727.03;;;13.23;28.03
19596;BME280;9945;46.010;8.946;2023-11-18T05:58:40;97737.53;;;13.06;28.58
19596;BME280;9945;46.010;8.946;2023-11-18T06:01:08;97734.53;;;13.18;27.75
19596;BME280;9945;46.010;8.946;2023-11-18T06:03:36;97729.53;;;13.25;28.03
19596;BME280;9945;46.010;8.946;2023-11-18T06:06:06;97732.59;;;13.20;29.19
19596;BME280;9945;46.010;8.946;2023-11-18T06:08:33;97733.28;;;13.22;28.98
19596;BME280;9945;46.010;8.946;2023-11-18T06:11:00;97726.28;;;13.13;28.48
19596;BME280;9945;46.010;8.946;2023-11-18T06:13:39;97735.19;;;13.03;29.22
19596;BME280;9945;46.010;8.946;2023-11-18T06:16:09;97739.56;;;13.12;29.20
19596;BME280;9945;46.010;8.946;2023-11-18T06:18:40;97742.19;;;12.94;29.86
19596;BME280;9945;46.010;8.946;2023-11-18T06:21:12;97746.41;;;13.05;29.58
19596;BME280;9945;46.010;8.946;2023-11-18T06:23:40;97734.44;;;13.10;28.04
19596;BME280;9945;46.010;8.946;2023-11-18T06:26:07;97746.78;;;13.10;28.98
19596;BME280;9945;46.010;8.946;2023-11-18T06:28:36;97750.91;;;13.12;28.18
19596;BME280;9945;46.010;8.946;2023-11-18T06:31:03;97753.31;;;13.06;28.67
19596;BME280;9945;46.010;8.946;2023-11-18T06:33:36;97759.22;;;12.90;28.85
19596;BME280;9945;46.010;8.946;2023-11-18T06:36:04;97751.56;;;12.79;29.01
19596;BME280;9945;46.010;8.946;2023-11-18T06:38:34;97762.47;;;13.02;27.97
19596;BME280;9945;46.010;8.946;2023-11-18T06:41:03;97767.25;;;12.88;28.17
19596;BME280;9945;46.010;8.946;2023-11-18T06:43:35;97766.81;;;12.93;27.53
19596;BME280;9945;46.010;8.946;2023-11-18T06:46:17;97774.78;;;12.83;29.22
19596;BME280;9945;46.010;8.946;2023-11-18T06:48:46;97769.59;;;12.92;27.90
19596;BME280;9945;46.010;8.946;2023-11-18T06:51:14;97774.81;;;13.01;27.50
19596;BME280;9945;46.010;8.946;2023-11-18T06:53:43;97778.53;;;12.81;28.23
19596;BME280;9945;46.010;8.946;2023-11-18T06:56:10;97786.81;;;12.76;28.31
19596;BME280;9945;46.010;8.946;2023-11-18T06:58:38;97790.78;;;12.90;27.75
19596;BME280;9945;46.010;8.946;2023-11-18T07:01:05;97799.31;;;12.74;29.40
19596;BME280;9945;46.010;8.946;2023-11-18T07:03:32;97812.78;;;12.89;28.56
19596;BME280;9945;46.010;8.946;2023-11-18T07:05:59;97804.31;;;12.68;29.62
19596;BME280;9945;46.010;8.946;2023-11-18T07:08:26;97802.66;;;12.67;27.59
19596;BME280;9945;46.010;8.946;2023-11-18T07:10:54;97813.50;;;12.81;27.95
19596;BME280;9945;46.010;8.946;2023-11-18T07:13:22;97815.16;;;12.82;30.02
19596;BME280;9945;46.010;8.946;2023-11-18T07:15:50;97818.66;;;12.73;27.61
19596;BME280;9945;46.010;8.946;2023-11-18T07:18:19;97816.97;;;12.82;28.87
19596;BME280;9945;46.010;8.946;2023-11-18T07:20:47;97816.47;;;12.69;27.75
19596;BME280;9945;46.010;8.946;2023-11-18T07:23:16;97819.09;;;12.69;30.04
19596;BME280;9945;46.010;8.946;2023-11-18T07:25:43;97822.81;;;12.76;28.17
19596;BME280;9945;46.010;8.946;2023-11-18T07:28:12;97827.38;;;12.74;28.74
19596;BME280;9945;46.010;8.946;2023-11-18T07:30:41;97841.38;;;12.65;30.32
19596;BME280;9945;46.010;8.946;2023-11-18T07:33:08;97837.53;;;12.86;30.22
19596;BME280;9945;46.010;8.946;2023-11-18T07:35:35;97829.19;;;13.01;29.93
19596;BME280;9945;46.010;8.946;2023-11-18T07:38:02;97819.59;;;12.82;30.58
19596;BME280;9945;46.010;8.946;2023-11-18T07:40:29;97826.22;;;13.04;30.04
19596;BME280;9945;46.010;8.946;2023-11-18T07:42:59;97821.88;;;13.40;30.19
19596;BME280;9945;46.010;8.946;2023-11-18T07:45:34;97832.09;;;13.43;29.36
19596;BME280;9945;46.010;8.946;2023-11-18T07:48:03;97837.88;;;13.46;29.79
19596;BME280;9945;46.010;8.946;2023-11-18T07:50:33;97827.94;;;13.76;29.18
19596;BME280;9945;46.010;8.946;2023-11-18T07:53:00;97831.53;;;13.75;29.28
19596;BME280;9945;46.010;8.946;2023-11-18T07:55:27;97828.72;;;13.94;28.16
19596;BME280;9945;46.010;8.946;2023-11-18T07:57:54;97830.53;;;13.93;28.35
19596;BME280;9945;46.010;8.946;2023-11-18T08:00:21;97829.91;;;13.99;27.84
19596;BME280;9945;46.010;8.946;2023-11-18T08:02:50;97834.25;;;14.09;27.07
19596;BME280;9945;46.010;8.946;2023-11-18T08:05:19;97838.03;;;14.06;28.79
19596;BME280;9945;46.010;8.946;2023-11-18T08:07:48;97844.66;;;14.36;27.45
19596;BME280;9945;46.010;8.946;2023-11-18T08:10:16;97832.72;;;14.50;27.21
19596;BME280;9945;46.010;8.946;2023-11-18T08:12:44;97829.84;;;14.69;27.36
19596;BME280;9945;46.010;8.946;2023-11-18T08:15:12;97827.22;;;14.69;27.07
19596;BME280;9945;46.010;8.946;2023-11-18T08:17:39;97832.50;;;14.69;26.97
19596;BME280;9945;46.010;8.946;2023-11-18T08:20:08;97843.66;;;14.97;27.14
19596;BME280;9945;46.010;8.946;2023-11-18T08:22:40;97842.19;;;15.10;27.20
19596;BME280;9945;46.010;8.946;2023-11-18T08:25:07;97853.44;;;15.21;26.79
19596;BME280;9945;46.010;8.946;2023-11-18T08:27:34;97852.25;;;15.15;26.58
19596;BME280;9945;46.010;8.946;2023-11-18T08:30:02;97853.59;;;15.19;26.90
19596;BME280;9945;46.010;8.946;2023-11-18T08:32:31;97854.28;;;15.29;26.69
19596;BME280;9945;46.010;8.946;2023-11-18T08:34:58;97848.19;;;15.45;26.33
19596;BME280;9945;46.010;8.946;2023-11-18T08:37:26;97848.53;;;15.50;26.17
19596;BME280;9945;46.010;8.946;2023-11-18T08:39:53;97843.97;;;15.68;26.30
19596;BME280;9945;46.010;8.946;2023-11-18T08:42:20;97842.50;;;15.82;26.06
19596;BME280;9945;46.010;8.946;2023-11-18T08:44:47;97841.47;;;15.91;26.00
19596;BME280;9945;46.010;8.946;2023-11-18T08:47:14;97836.88;;;15.85;23.84
19596;BME280;9945;46.010;8.946;2023-11-18T08:49:42;97843.63;;;15.96;24.58
19596;BME280;9945;46.010;8.946;2023-11-18T08:52:11;97837.00;;;16.00;25.63
19596;BME280;9945;46.010;8.946;2023-11-18T08:54:40;97841.63;;;16.30;25.88
19596;BME280;9945;46.010;8.946;2023-11-18T08:57:27;97844.25;;;16.30;26.98
19596;BME280;9945;46.010;8.946;2023-11-18T09:00:14;97852.88;;;16.24;28.59
19596;BME280;9945;46.010;8.946;2023-11-18T09:03:03;97847.84;;;16.45;28.16
19596;BME280;9945;46.010;8.946;2023-11-18T09:05:32;97856.44;;;16.47;28.31
19596;BME280;9945;46.010;8.946;2023-11-18T09:08:01;97857.28;;;16.40;26.17
19596;BME280;9945;46.010;8.946;2023-11-18T09:10:32;97856.25;;;16.73;24.96
19596;BME280;9945;46.010;8.946;2023-11-18T09:12:59;97864.31;;;16.80;26.42
19596;BME280;9945;46.010;8.946;2023-11-18T09:15:29;97857.22;;;17.11;26.50
19596;BME280;9945;46.010;8.946;2023-11-18T09:17:56;97858.66;;;17.22;25.95
19596;BME280;9945;46.010;8.946;2023-11-18T09:20:23;97859.16;;;17.25;26.89
19596;BME280;9945;46.010;8.946;2023-11-18T09:22:50;97867.34;;;17.38;25.15
19596;BME280;9945;46.010;8.946;2023-11-18T09:25:21;97847.25;;;17.52;25.32
19596;BME280;9945;46.010;8.946;2023-11-18T09:27:50;97861.59;;;17.58;25.69
19596;BME280;9945;46.010;8.946;2023-11-18T09:30:16;97850.69;;;17.84;23.98
19596;BME280;9945;46.010;8.946;2023-11-18T09:32:43;97856.91;;;17.91;24.65
19596;BME280;9945;46.010;8.946;2023-11-18T09:35:13;97859.66;;;18.20;25.10
19596;BME280;9945;46.010;8.946;2023-11-18T09:37:40;97855.78;;;18.60;24.65
19596;BME280;9945;46.010;8.946;2023-11-18T09:40:09;97861.44;;;19.01;23.72
19596;BME280;9945;46.010;8.946;2023-11-18T09:42:41;97858.03;;;19.58;22.76
19596;BME280;9945;46.010;8.946;2023-11-18T09:45:11;97857.69;;;20.59;22.31
19596;BME280;9945;46.010;8.946;2023-11-18T09:47:45;97865.72;;;20.17;23.93
19596;BME280;9945;46.010;8.946;2023-11-18T09:50:17;97870.59;;;21.44;23.38
19596;BME280;9945;46.010;8.946;2023-11-18T09:52:48;97846.13;;;22.21;22.64
19596;BME280;9945;46.010;8.946;2023-11-18T09:55:25;97848.41;;;23.98;20.94
19596;BME280;9945;46.010;8.946;2023-11-18T09:57:59;97836.41;;;24.93;20.61
19596;BME280;9945;46.010;8.946;2023-11-18T10:00:31;97835.03;;;24.84;20.39
19596;BME280;9945;46.010;8.946;2023-11-18T10:02:59;97838.94;;;26.37;19.02
19596;BME280;9945;46.010;8.946;2023-11-18T10:05:27;97840.19;;;25.22;20.01
19596;BME280;9945;46.010;8.946;2023-11-18T10:07:55;97834.44;;;23.64;21.48
19596;BME280;9945;46.010;8.946;2023-11-18T10:10:24;97832.34;;;23.28;22.25
19596;BME280;9945;46.010;8.946;2023-11-18T10:12:56;97837.59;;;23.42;23.01
19596;BME280;9945;46.010;8.946;2023-11-18T10:15:25;97830.22;;;23.75;22.60
19596;BME280;9945;46.010;8.946;2023-11-18T10:17:54;97831.06;;;24.00;21.52
19596;BME280;9945;46.010;8.946;2023-11-18T10:20:43;97830.38;;;23.55;19.81
19596;BME280;9945;46.010;8.946;2023-11-18T10:23:12;97833.28;;;23.40;21.87
19596;BME280;9945;46.010;8.946;2023-11-18T10:25:45;97832.56;;;22.30;22.33
19596;BME280;9945;46.010;8.946;2023-11-18T10:28:23;97843.44;;;23.25;21.85
19596;BME280;9945;46.010;8.946;2023-11-18T10:30:53;97847.13;;;24.00;21.49
19596;BME280;9945;46.010;8.946;2023-11-18T10:33:24;97849.81;;;24.50;21.11
19596;BME280;9945;46.010;8.946;2023-11-18T10:35:57;97845.16;;;24.64;21.35
19596;BME280;9945;46.010;8.946;2023-11-18T10:38:24;97843.31;;;25.19;20.27
19596;BME280;9945;46.010;8.946;2023-11-18T10:40:55;97846.19;;;25.06;20.15
19596;BME280;9945;46.010;8.946;2023-11-18T10:43:23;97840.56;;;24.28;20.56
19596;BME280;9945;46.010;8.946;2023-11-18T10:46:04;97856.28;;;23.55;20.49
19596;BME280;9945;46.010;8.946;2023-11-18T10:48:40;97855.34;;;23.74;20.32
19596;BME280;9945;46.010;8.946;2023-11-18T10:51:09;97851.03;;;22.71;21.83
19596;BME280;9945;46.010;8.946;2023-11-18T10:53:39;97841.34;;;22.63;22.06
19596;BME280;9945;46.010;8.946;2023-11-18T10:56:16;97839.56;;;22.24;22.03
19596;BME280;9945;46.010;8.946;2023-11-18T10:58:49;97847.69;;;21.50;23.30
19596;BME280;9945;46.010;8.946;2023-11-18T11:01:27;97850.41;;;21.15;24.05
19596;BME280;9945;46.010;8.946;2023-11-18T11:03:55;97846.88;;;21.56;23.82
19596;BME280;9945;46.010;8.946;2023-11-18T11:06:23;97851.03;;;21.85;23.74
19596;BME280;9945;46.010;8.946;2023-11-18T11:08:50;97827.00;;;21.72;23.17
19596;BME280;9945;46.010;8.946;2023-11-18T11:11:20;97824.97;;;21.74;23.11
19596;BME280;9945;46.010;8.946;2023-11-18T11:13:49;97820.22;;;21.69;23.27
19596;BME280;9945;46.010;8.946;2023-11-18T11:16:23;97818.41;;;22.29;22.77
19596;BME280;9945;46.010;8.946;2023-11-18T11:19:04;97813.91;;;22.30;21.54
19596;BME280;9945;46.010;8.946;2023-11-18T11:21:38;97807.53;;;22.31;21.13
19596;BME280;9945;46.010;8.946;2023-11-18T11:24:20;97812.41;;;22.67;21.06
19596;BME280;9945;46.010;8.946;2023-11-18T11:27:07;97820.78;;;23.34;20.20
19596;BME280;9945;46.010;8.946;2023-11-18T11:29:47;97822.81;;;23.77;21.07
19596;BME280;9945;46.010;8.946;2023-11-18T11:32:25;97824.53;;;23.96;20.85
19596;BME280;9945;46.010;8.946;2023-11-18T11:35:02;97823.25;;;23.99;20.97
19596;BME280;9945;46.010;8.946;2023-11-18T11:37:34;97813.91;;;23.83;21.06
19596;BME280;9945;46.010;8.946;2023-11-18T11:40:02;97814.25;;;23.30;20.19
19596;BME280;9945;46.010;8.946;2023-11-18T11:42:35;97806.44;;;23.22;20.44
19596;BME280;9945;46.010;8.946;2023-11-18T11:45:03;97798.22;;;23.30;20.38
19596;BME280;9945;46.010;8.946;2023-11-18T11:47:34;97799.94;;;23.50;20.32
19596;BME280;9945;46.010;8.946;2023-11-18T11:50:14;97793.09;;;23.60;19.79
19596;BME280;9945;46.010;8.946;2023-11-18T11:52:51;97798.09;;;23.82;20.14
19596;BME280;9945;46.010;8.946;2023-11-18T11:55:26;97788.47;;;23.74;19.76
19596;BME280;9945;46.010;8.946;2023-11-18T11:57:56;97792.22;;;23.66;19.96
19596;BME280;9945;46.010;8.946;2023-11-18T12:00:27;97784.34;;;23.40;20.83
19596;BME280;9945;46.010;8.946;2023-11-18T12:03:02;97781.22;;;23.50;20.80
19596;BME280;9945;46.010;8.946;2023-11-18T12:05:31;97779.63;;;23.04;19.97
19596;BME280;9945;46.010;8.946;2023-11-18T12:07:59;97774.84;;;23.51;19.77
19596;BME280;9945;46.010;8.946;2023-11-18T12:10:26;97779.94;;;23.59;19.79
19596;BME280;9945;46.010;8.946;2023-11-18T12:13:07;97781.75;;;23.65;19.83
19596;BME280;9945;46.010;8.946;2023-11-18T12:15:50;97776.91;;;24.05;19.16
19596;BME280;9945;46.010;8.946;2023-11-18T12:18:22;97772.91;;;24.14;19.08
19596;BME280;9945;46.010;8.946;2023-11-18T12:20:51;97775.13;;;24.24;19.39
19596;BME280;9945;46.010;8.946;2023-11-18T12:23:23;97772.13;;;23.89;18.10
19596;BME280;9945;46.010;8.946;2023-11-18T12:25:50;97771.91;;;23.90;19.16
19596;BME280;9945;46.010;8.946;2023-11-18T12:28:24;97768.91;;;23.73;18.50
19596;BME280;9945;46.010;8.946;2023-11-18T12:30:54;97756.69;;;23.84;19.10
19596;BME280;9945;46.010;8.946;2023-11-18T12:33:23;97758.22;;;23.42;18.79
19596;BME280;9945;46.010;8.946;2023-11-18T12:36:33;97749.72;;;23.83;19.18
19596;BME280;9945;46.010;8.946;2023-11-18T12:39:32;97758.75;;;25.05;19.04
19596;BME280;9945;46.010;8.946;2023-11-18T12:42:07;97752.09;;;24.41;18.92
19596;BME280;9945;46.010;8.946;2023-11-18T12:44:40;97761.19;;;23.90;19.51
19596;BME280;9945;46.010;8.946;2023-11-18T12:47:11;97748.44;;;24.35;18.51
19596;BME280;9945;46.010;8.946;2023-11-18T12:49:44;97759.75;;;24.12;19.81
19596;BME280;9945;46.010;8.946;2023-11-18T12:52:17;97763.16;;;24.44;20.17
19596;BME280;9945;46.010;8.946;2023-11-18T12:54:44;97752.22;;;24.46;19.12
19596;BME280;9945;46.010;8.946;2023-11-18T12:57:16;97745.16;;;25.48;19.19
19596;BME280;9945;46.010;8.946;2023-11-18T12:59:43;97740.28;;;25.15;18.50
19596;BME280;9945;46.010;8.946;2023-11-18T13:02:11;97744.03;;;23.98;19.03
19596;BME280;9945;46.010;8.946;2023-11-18T13:04:44;97755.34;;;24.79;18.36
19596;BME280;9945;46.010;8.946;2023-11-18T13:07:13;97760.50;;;25.59;17.66
19596;BME280;9945;46.010;8.946;2023-11-18T13:09:42;97757.50;;;25.90;17.30
19596;BME280;9945;46.010;8.946;2023-11-18T13:12:10;97752.03;;;26.09;17.93
19596;BME280;9945;46.010;8.946;2023-11-18T13:14:41;97752.88;;;26.32;17.90
19596;BME280;9945;46.010;8.946;2023-11-18T13:17:09;97754.25;;;26.47;16.92
19596;BME280;9945;46.010;8.946;2023-11-18T13:19:37;97739.91;;;26.41;17.14
19596;BME280;9945;46.010;8.946;2023-11-18T13:22:06;97739.44;;;26.09;17.78
19596;BME280;9945;46.010;8.946;2023-11-18T13:24:34;97728.84;;;25.19;17.73